createdAt,value
2022-12-03T00:02:28.120Z,31.80
2022-12-03T00:05:13.606Z,32.27
2022-12-03T00:07:58.717Z,32.90
2022-12-03T00:10:44.071Z,31.83
2022-12-03T00:13:28.986Z,32.13
2022-12-03T00:16:14.504Z,30.83
2022-12-03T00:18:59.681Z,30.27
2022-12-03T00:21:44.711Z,29.67
2022-12-03T00:24:29.543Z,34.70
2022-12-03T00:27:15.009Z,32.17
2022-12-03T00:30:00.346Z,32.47
2022-12-03T00:32:45.321Z,30.33
2022-12-03T00:35:31.045Z,29.17
2022-12-03T00:38:15.814Z,30.20
2022-12-03T00:41:04.024Z,31.67
2022-12-03T00:43:49.247Z,34.37
2022-12-03T00:46:34.675Z,31.73
2022-12-03T00:49:20.068Z,32.27
2022-12-03T00:52:04.896Z,32.73
2022-12-03T00:54:50.720Z,36.23
2022-12-03T00:57:35.917Z,35.10
2022-12-03T01:00:21.278Z,33.03
2022-12-03T01:03:07.377Z,37.70
2022-12-03T01:05:52.381Z,37.00
2022-12-03T01:08:37.909Z,32.83
2022-12-03T01:11:23.158Z,31.43
2022-12-03T01:14:12.912Z,34.03
2022-12-03T01:16:58.318Z,34.50
2022-12-03T01:19:48.067Z,35.07
2022-12-03T01:22:33.404Z,33.70
2022-12-03T01:25:18.413Z,36.07
2022-12-03T01:28:03.545Z,31.27
2022-12-03T01:30:49.048Z,30.53
2022-12-03T01:33:34.553Z,28.43
2022-12-03T01:36:20.144Z,28.40
2022-12-03T01:39:05.207Z,29.73
2022-12-03T01:41:52.546Z,30.37
2022-12-03T01:44:40.517Z,30.10
2022-12-03T01:47:32.266Z,32.40
2022-12-03T01:50:30.139Z,31.13
2022-12-03T01:53:16.840Z,32.10
2022-12-03T01:56:02.010Z,28.80
2022-12-03T01:58:47.507Z,25.90
2022-12-03T02:01:32.451Z,25.20
2022-12-03T02:04:22.333Z,25.43
2022-12-03T02:07:23.044Z,26.03
2022-12-03T02:10:08.526Z,22.67
2022-12-03T02:13:05.145Z,21.10
2022-12-03T02:15:50.337Z,21.73
2022-12-03T02:18:35.770Z,20.57
2022-12-03T02:21:36.344Z,20.87
2022-12-03T02:24:42.563Z,20.73
2022-12-03T02:27:28.245Z,19.37
2022-12-03T02:30:16.245Z,21.37
2022-12-03T02:33:01.479Z,19.63
2022-12-03T02:35:47.149Z,19.73
2022-12-03T02:38:35.502Z,22.60
2022-12-03T02:41:21.323Z,21.40
2022-12-03T02:44:08.241Z,20.70
2022-12-03T02:46:53.378Z,19.17
2022-12-03T02:49:38.881Z,20.27
2022-12-03T02:52:24.433Z,20.17
2022-12-03T02:55:11.064Z,21.63
2022-12-03T02:57:56.938Z,24.10
2022-12-03T03:00:43.705Z,22.80
2022-12-03T03:03:30.895Z,21.37
2022-12-03T03:06:18.512Z,22.80
2022-12-03T03:09:03.780Z,22.73
2022-12-03T03:11:49.019Z,21.83
2022-12-03T03:14:34.546Z,22.70
2022-12-03T03:17:19.921Z,23.47
2022-12-03T03:20:06.721Z,24.97
2022-12-03T03:22:52.011Z,24.10
2022-12-03T03:25:38.369Z,28.63
2022-12-03T03:28:24.440Z,27.40
2022-12-03T03:31:11.640Z,24.33
2022-12-03T03:33:57.350Z,21.37
2022-12-03T03:36:42.662Z,21.63
2022-12-03T03:39:27.891Z,19.70
2022-12-03T03:42:13.746Z,21.37
2022-12-03T03:44:59.283Z,22.27
2022-12-03T03:47:44.971Z,22.10
2022-12-03T03:50:31.477Z,21.40
2022-12-03T03:53:18.547Z,22.57
2022-12-03T03:56:04.129Z,22.80
2022-12-03T03:58:49.063Z,22.37
2022-12-03T04:01:34.815Z,23.40
2022-12-03T04:04:23.201Z,22.20
2022-12-03T04:07:08.569Z,22.47
2022-12-03T04:09:53.862Z,21.40
2022-12-03T04:12:39.186Z,22.93
2022-12-03T04:15:26.016Z,23.53
2022-12-03T04:18:11.259Z,23.53
2022-12-03T04:20:56.174Z,24.70
2022-12-03T04:23:41.476Z,23.43
2022-12-03T04:26:27.023Z,24.87
2022-12-03T04:29:13.043Z,23.93
2022-12-03T04:31:58.428Z,23.03
2022-12-03T04:34:43.208Z,25.10
2022-12-03T04:37:28.335Z,25.90
2022-12-03T04:40:13.599Z,26.33
2022-12-03T04:42:59.170Z,25.47
2022-12-03T04:45:44.414Z,24.47
2022-12-03T04:48:29.886Z,22.10
2022-12-03T04:51:15.333Z,25.10
2022-12-03T04:54:00.481Z,26.50
2022-12-03T04:56:46.142Z,27.33
2022-12-03T04:59:31.755Z,26.77
2022-12-03T05:02:16.837Z,22.73
2022-12-03T05:05:02.142Z,25.20
2022-12-03T05:07:47.483Z,25.30
2022-12-03T05:10:32.840Z,25.87
2022-12-03T05:13:17.774Z,26.50
2022-12-03T05:16:02.754Z,28.10
2022-12-03T05:18:48.144Z,27.37
2022-12-03T05:21:33.250Z,29.03
2022-12-03T05:24:18.555Z,29.97
2022-12-03T05:27:04.032Z,27.10
2022-12-03T05:29:49.264Z,27.10
2022-12-03T05:32:34.636Z,28.37
2022-12-03T05:35:19.618Z,31.80
2022-12-03T05:38:04.723Z,35.70
2022-12-03T05:40:49.983Z,28.57
2022-12-03T05:43:35.061Z,28.07
2022-12-03T05:46:20.414Z,27.00
2022-12-03T05:49:05.889Z,26.60
2022-12-03T05:51:56.722Z,29.27
2022-12-03T05:54:43.602Z,27.73
2022-12-03T05:57:29.171Z,27.53
2022-12-03T06:00:42.693Z,26.67
2022-12-03T06:03:28.199Z,26.10
2022-12-03T06:06:13.424Z,26.67
2022-12-03T06:08:58.802Z,25.60
2022-12-03T06:11:43.698Z,25.73
2022-12-03T06:14:28.979Z,26.50
2022-12-03T06:17:13.935Z,23.53
2022-12-03T06:19:59.518Z,25.93
2022-12-03T06:22:44.649Z,25.73
2022-12-03T06:25:29.806Z,26.60
2022-12-03T06:28:14.661Z,24.50
2022-12-03T06:30:59.617Z,24.17
2022-12-03T06:33:44.824Z,22.37
2022-12-03T06:36:30.331Z,23.20
2022-12-03T06:39:18.722Z,22.80
2022-12-03T06:42:03.982Z,23.90
2022-12-03T06:44:49.230Z,23.87
2022-12-03T06:47:34.050Z,26.00
2022-12-03T06:50:19.236Z,23.30
2022-12-03T06:53:04.993Z,23.80
2022-12-03T06:55:50.114Z,23.20
2022-12-03T06:58:35.201Z,24.23
2022-12-03T07:01:20.918Z,24.10
2022-12-03T07:04:06.148Z,24.77
2022-12-03T07:06:51.585Z,23.10
2022-12-03T07:09:36.820Z,24.00
2022-12-03T07:12:22.196Z,24.43
2022-12-03T07:15:07.477Z,23.63
2022-12-03T07:17:52.241Z,24.50
2022-12-03T07:20:37.328Z,24.03
2022-12-03T07:23:22.551Z,24.20
2022-12-03T07:26:07.422Z,25.40
2022-12-03T07:28:52.228Z,24.87
2022-12-03T07:31:37.329Z,25.67
2022-12-03T07:34:23.198Z,25.83
2022-12-03T07:37:08.280Z,26.13
2022-12-03T07:39:53.567Z,26.03
2022-12-03T07:42:38.561Z,26.83
2022-12-03T07:45:23.825Z,28.60
2022-12-03T07:48:08.673Z,29.30
2022-12-03T07:50:53.503Z,27.60
2022-12-03T07:53:38.469Z,27.13
2022-12-03T07:56:23.504Z,27.33
2022-12-03T07:59:08.182Z,30.00
2022-12-03T08:01:53.215Z,29.47
2022-12-03T08:04:38.096Z,33.50
2022-12-03T08:07:23.126Z,33.37
2022-12-03T08:10:08.150Z,30.23
2022-12-03T08:12:53.594Z,36.50
2022-12-03T08:15:39.633Z,37.10
2022-12-03T08:18:24.987Z,27.10
2022-12-03T08:21:15.990Z,28.57
2022-12-03T08:24:29.035Z,28.10
2022-12-03T08:27:19.544Z,28.03
2022-12-03T08:30:05.482Z,28.03
2022-12-03T08:32:51.034Z,29.63
2022-12-03T08:35:36.086Z,28.17
2022-12-03T08:38:23.644Z,28.03
2022-12-03T08:41:15.810Z,28.70
2022-12-03T08:44:00.721Z,27.00
2022-12-03T08:46:50.250Z,32.20
2022-12-03T08:49:39.167Z,30.67
2022-12-03T08:52:31.308Z,27.50
2022-12-03T08:55:37.140Z,30.57
2022-12-03T08:58:24.862Z,31.67
2022-12-03T09:01:13.157Z,30.27
2022-12-03T09:04:14.669Z,31.03
2022-12-03T09:07:00.057Z,29.63
2022-12-03T09:09:44.859Z,30.67
2022-12-03T09:12:31.965Z,29.20
2022-12-03T09:15:17.290Z,29.03
2022-12-03T09:18:02.522Z,27.97
2022-12-03T09:20:47.575Z,26.40
2022-12-03T09:23:32.749Z,26.70
2022-12-03T09:26:17.622Z,27.23
2022-12-03T09:29:06.430Z,27.73
2022-12-03T09:31:55.962Z,27.93
2022-12-03T09:34:41.224Z,25.23
2022-12-03T09:37:26.255Z,26.73
2022-12-03T09:40:12.061Z,26.60
2022-12-03T09:42:57.060Z,24.50
2022-12-03T09:45:47.989Z,25.47
2022-12-03T09:48:33.119Z,25.33
2022-12-03T09:51:19.920Z,25.63
2022-12-03T09:54:07.079Z,28.53
2022-12-03T09:56:53.715Z,28.70
2022-12-03T09:59:39.287Z,29.47
2022-12-03T10:02:28.722Z,24.20
2022-12-03T10:05:15.012Z,25.87
2022-12-03T10:08:06.828Z,28.07
2022-12-03T10:10:54.687Z,26.50
2022-12-03T10:13:40.344Z,23.57
2022-12-03T10:16:26.103Z,24.37
2022-12-03T10:19:32.684Z,24.60
2022-12-03T10:22:17.806Z,23.13
2022-12-03T10:25:06.257Z,23.93
2022-12-03T10:27:56.342Z,26.43
2022-12-03T10:30:53.666Z,26.10
2022-12-03T10:33:41.665Z,29.37
2022-12-03T10:36:26.747Z,29.70
2022-12-03T10:39:13.455Z,30.70
2022-12-03T10:42:14.734Z,27.07
2022-12-03T10:45:15.053Z,26.30
2022-12-03T10:48:04.936Z,27.90
2022-12-03T10:50:54.466Z,27.07
2022-12-03T10:53:40.873Z,34.67
2022-12-03T10:56:27.082Z,29.37
2022-12-03T10:59:19.771Z,30.67
2022-12-03T11:02:17.127Z,28.10
2022-12-03T11:05:02.100Z,26.83
2022-12-03T11:07:47.385Z,26.87
2022-12-03T11:10:32.722Z,27.80
2022-12-03T11:13:28.525Z,26.50
2022-12-03T11:16:34.328Z,26.60
2022-12-03T11:19:39.593Z,26.13
2022-12-03T11:22:28.144Z,27.63
2022-12-03T11:25:25.654Z,25.13
2022-12-03T11:28:14.140Z,26.80
2022-12-03T11:31:02.180Z,27.13
2022-12-03T11:33:47.754Z,25.73
2022-12-03T11:37:00.434Z,23.77
2022-12-03T11:40:04.271Z,25.37
2022-12-03T11:42:49.208Z,25.33
2022-12-03T11:45:37.956Z,25.57
2022-12-03T11:48:23.459Z,27.23
2022-12-03T11:51:14.730Z,26.40
2022-12-03T11:54:00.444Z,26.97
2022-12-03T11:56:47.557Z,24.63
2022-12-03T11:59:32.711Z,26.10
2022-12-03T12:02:20.047Z,25.63
2022-12-03T12:05:31.484Z,24.17
2022-12-03T12:08:19.052Z,23.50
2022-12-03T12:11:17.471Z,26.07
2022-12-03T12:14:06.753Z,24.50
2022-12-03T12:16:55.374Z,25.40
2022-12-03T12:19:42.606Z,24.77
2022-12-03T12:22:27.544Z,24.60
2022-12-03T12:25:35.738Z,26.70
2022-12-03T12:28:21.461Z,24.70
2022-12-03T12:31:11.408Z,23.43
2022-12-03T12:33:56.938Z,21.77
2022-12-03T12:36:41.882Z,22.80
2022-12-03T12:39:27.002Z,21.43
2022-12-03T12:42:31.843Z,25.20
2022-12-03T12:45:20.388Z,24.23
2022-12-03T12:48:31.836Z,24.77
2022-12-03T12:51:17.848Z,22.67
2022-12-03T12:54:02.750Z,22.50
2022-12-03T12:56:49.549Z,23.63
2022-12-03T12:59:34.571Z,24.87
2022-12-03T13:02:44.506Z,25.50
2022-12-03T13:05:40.486Z,25.50
2022-12-03T13:08:31.946Z,24.53
2022-12-03T13:11:38.954Z,24.33
2022-12-03T13:14:26.142Z,23.97
2022-12-03T13:17:15.361Z,25.57
2022-12-03T13:20:07.522Z,26.43
2022-12-03T13:22:53.177Z,24.53
2022-12-03T13:26:00.239Z,26.00
2022-12-03T13:28:43.343Z,27.90
2022-12-03T13:31:33.335Z,29.30
2022-12-03T13:34:24.533Z,27.00
2022-12-03T13:37:20.523Z,25.60
2022-12-03T13:40:19.926Z,25.57
2022-12-03T13:43:12.027Z,24.60
2022-12-03T13:45:58.049Z,25.50
2022-12-03T13:48:43.268Z,26.33
2022-12-03T13:51:32.269Z,27.23
2022-12-03T13:54:27.611Z,25.20
2022-12-03T13:57:12.699Z,25.67
2022-12-03T13:59:57.688Z,25.57
2022-12-03T14:02:43.230Z,26.93
2022-12-03T14:05:29.114Z,26.80
2022-12-03T14:08:14.083Z,26.63
2022-12-03T14:11:00.852Z,29.00
2022-12-03T14:13:46.404Z,29.50
2022-12-03T14:16:31.393Z,25.93
2022-12-03T14:19:16.675Z,26.33
2022-12-03T14:22:01.571Z,27.50
2022-12-03T14:24:46.344Z,27.20
2022-12-03T14:27:31.232Z,26.30
2022-12-03T14:30:16.648Z,26.60
2022-12-03T14:33:02.165Z,26.87
2022-12-03T14:35:47.329Z,27.30
2022-12-03T14:38:32.398Z,27.53
2022-12-03T14:41:17.720Z,28.47
2022-12-03T14:44:02.406Z,26.93
2022-12-03T14:46:49.107Z,40.20
2022-12-03T14:49:36.661Z,30.57
2022-12-03T14:52:21.591Z,29.73
2022-12-03T14:55:06.799Z,33.97
2022-12-03T14:57:51.969Z,29.77
2022-12-03T15:00:36.916Z,29.63
2022-12-03T15:03:21.834Z,29.63
2022-12-03T15:06:07.403Z,31.00
2022-12-03T15:08:52.771Z,30.43
2022-12-03T15:11:41.456Z,33.43
2022-12-03T15:14:30.907Z,32.63
2022-12-03T15:17:16.051Z,34.80
2022-12-03T15:20:01.365Z,33.20
2022-12-03T15:22:46.247Z,32.20
2022-12-03T15:25:31.376Z,33.10
2022-12-03T15:28:16.977Z,35.03
2022-12-03T15:31:02.032Z,32.03
2022-12-03T15:33:47.327Z,33.87
2022-12-03T15:36:32.225Z,33.70
2022-12-03T15:39:17.073Z,31.87
2022-12-03T15:42:02.562Z,33.17
2022-12-03T15:44:47.313Z,32.17
2022-12-03T15:47:32.258Z,35.10
2022-12-03T15:50:18.044Z,34.80
2022-12-03T15:53:02.951Z,33.10
2022-12-03T15:55:47.846Z,34.10
2022-12-03T15:58:32.879Z,35.40
2022-12-03T16:01:18.130Z,34.03
2022-12-03T16:04:04.059Z,35.33
2022-12-03T16:06:49.150Z,33.93
2022-12-03T16:09:34.612Z,34.47
2022-12-03T16:12:19.570Z,34.93
2022-12-03T16:15:04.933Z,32.87
2022-12-03T16:17:50.804Z,36.57
2022-12-03T16:20:35.833Z,34.40
2022-12-03T16:23:21.039Z,32.50
2022-12-03T16:26:06.524Z,33.23
2022-12-03T16:28:52.328Z,36.33
2022-12-03T16:31:37.378Z,35.80
2022-12-03T16:34:22.765Z,46.93
2022-12-03T16:37:08.026Z,34.63
2022-12-03T16:39:53.400Z,34.20
2022-12-03T16:42:41.926Z,33.60
2022-12-03T16:45:27.193Z,33.43
2022-12-03T16:48:12.715Z,34.20
2022-12-03T16:50:58.102Z,33.83
2022-12-03T16:53:42.869Z,36.63
2022-12-03T16:56:27.752Z,34.07
2022-12-03T16:59:12.603Z,35.63
2022-12-03T17:01:57.586Z,35.73
2022-12-03T17:04:42.444Z,37.37
2022-12-03T17:07:27.506Z,40.27
2022-12-03T17:10:12.867Z,40.53
2022-12-03T17:13:09.193Z,37.87
2022-12-03T17:15:55.093Z,37.43
2022-12-03T17:18:40.052Z,36.83
2022-12-03T17:21:25.461Z,37.97
2022-12-03T17:24:10.499Z,37.77
2022-12-03T17:26:55.748Z,37.63
2022-12-03T17:29:41.218Z,39.87
2022-12-03T17:32:26.442Z,40.67
2022-12-03T17:35:12.101Z,39.57
2022-12-03T17:37:57.009Z,38.63
2022-12-03T17:40:41.879Z,41.87
2022-12-03T17:43:26.968Z,38.13
2022-12-03T17:46:12.188Z,40.53
2022-12-03T17:48:57.506Z,42.20
2022-12-03T17:51:42.435Z,45.50
2022-12-03T17:54:43.149Z,39.60
2022-12-03T17:57:32.718Z,37.20
2022-12-03T18:00:18.025Z,40.07
2022-12-03T18:03:03.360Z,37.10
2022-12-03T18:05:48.513Z,38.03
2022-12-03T18:08:33.403Z,41.83
2022-12-03T18:11:18.507Z,39.77
2022-12-03T18:14:03.804Z,40.23
2022-12-03T18:17:04.197Z,39.60
2022-12-03T18:19:49.240Z,37.20
2022-12-03T18:22:34.065Z,38.20
2022-12-03T18:25:19.358Z,40.03
2022-12-03T18:28:04.805Z,38.77
2022-12-03T18:30:52.760Z,37.60
2022-12-03T18:33:38.537Z,37.13
2022-12-03T18:36:26.228Z,36.17
2022-12-03T18:39:23.603Z,35.67
2022-12-03T18:42:17.540Z,35.57
2022-12-03T18:45:02.896Z,37.47
2022-12-03T18:47:48.402Z,37.10
2022-12-03T18:50:33.677Z,37.13
2022-12-03T18:53:19.038Z,38.33
2022-12-03T18:56:04.458Z,36.43
2022-12-03T18:58:49.664Z,38.70
2022-12-03T19:01:35.332Z,39.93
2022-12-03T19:04:20.608Z,43.13
2022-12-03T19:07:06.036Z,39.10
2022-12-03T19:09:50.949Z,36.80
2022-12-03T19:12:36.637Z,37.70
2022-12-03T19:15:21.728Z,38.17
2022-12-03T19:18:06.597Z,38.50
2022-12-03T19:20:51.505Z,39.80
2022-12-03T19:23:37.353Z,37.90
2022-12-03T19:26:22.199Z,40.33
2022-12-03T19:29:07.050Z,39.57
2022-12-03T19:31:52.270Z,41.77
2022-12-03T19:34:37.363Z,44.20
2022-12-03T19:37:22.657Z,40.77
2022-12-03T19:40:08.198Z,39.93
2022-12-03T19:42:53.462Z,43.13
2022-12-03T19:45:38.385Z,39.13
2022-12-03T19:48:23.742Z,42.73
2022-12-03T19:51:32.974Z,40.67
2022-12-03T19:54:16.011Z,41.57
2022-12-03T19:57:01.171Z,40.97
2022-12-03T19:59:46.401Z,41.30
2022-12-03T20:02:31.819Z,40.10
2022-12-03T20:05:17.289Z,40.73
2022-12-03T20:08:02.864Z,42.73
2022-12-03T20:10:48.321Z,41.57
2022-12-03T20:13:36.413Z,42.53
2022-12-03T20:16:22.823Z,41.63
2022-12-03T20:19:10.861Z,41.67
2022-12-03T20:22:02.059Z,43.13
2022-12-03T20:24:47.829Z,45.00
2022-12-03T20:27:32.772Z,42.97
2022-12-03T20:30:17.728Z,43.23
2022-12-03T20:33:03.083Z,43.73
2022-12-03T20:35:52.431Z,41.43
2022-12-03T20:38:37.852Z,41.73
2022-12-03T20:41:23.250Z,39.13
2022-12-03T20:44:08.404Z,41.37
2022-12-03T20:46:53.472Z,42.50
2022-12-03T20:49:38.703Z,42.60
2022-12-03T20:52:23.940Z,43.90
2022-12-03T20:55:09.648Z,41.27
2022-12-03T20:57:55.040Z,41.63
2022-12-03T21:00:39.930Z,43.03
2022-12-03T21:03:24.835Z,42.43
2022-12-03T21:06:10.435Z,41.83
2022-12-03T21:08:57.642Z,41.23
2022-12-03T21:11:42.822Z,42.67
2022-12-03T21:14:27.758Z,42.90
2022-12-03T21:17:13.158Z,42.13
2022-12-03T21:19:58.568Z,43.30
2022-12-03T21:22:43.567Z,41.63
2022-12-03T21:25:28.618Z,41.50
2022-12-03T21:28:13.625Z,43.10
2022-12-03T21:31:03.341Z,42.73
2022-12-03T21:33:48.844Z,43.20
2022-12-03T21:36:33.879Z,44.67
2022-12-03T21:39:19.014Z,44.50
2022-12-03T21:42:22.346Z,42.90
2022-12-03T21:45:09.806Z,44.73
2022-12-03T21:47:54.812Z,46.10
2022-12-03T21:50:40.327Z,45.23
2022-12-03T21:53:25.740Z,45.83
2022-12-03T21:56:13.623Z,42.90
2022-12-03T21:58:58.745Z,97.67
2022-12-03T22:01:47.144Z,39.67
2022-12-03T22:04:32.802Z,40.00
2022-12-03T22:07:18.106Z,40.67
2022-12-03T22:10:04.960Z,39.50
2022-12-03T22:12:49.821Z,39.63
2022-12-03T22:15:34.704Z,40.00
2022-12-03T22:18:20.088Z,38.87
2022-12-03T22:21:07.599Z,40.13
2022-12-03T22:23:52.819Z,40.33
2022-12-03T22:26:37.738Z,39.00
2022-12-03T22:29:22.788Z,38.37
2022-12-03T22:32:07.746Z,37.33
2022-12-03T22:34:53.088Z,38.27
2022-12-03T22:37:37.920Z,36.87
2022-12-03T22:40:24.028Z,39.20
2022-12-03T22:43:09.349Z,38.17
2022-12-03T22:45:55.565Z,37.13
2022-12-03T22:48:45.638Z,37.03
2022-12-03T22:51:30.631Z,36.90
2022-12-03T22:54:18.259Z,37.17
2022-12-03T22:57:07.621Z,40.97
2022-12-03T22:59:52.946Z,41.00
2022-12-03T23:02:38.661Z,38.37
2022-12-03T23:05:23.673Z,42.47
2022-12-03T23:08:11.936Z,37.67
2022-12-03T23:11:00.365Z,39.23
2022-12-03T23:13:48.377Z,40.50
2022-12-03T23:16:33.765Z,40.33
2022-12-03T23:19:18.780Z,39.67
2022-12-03T23:22:03.854Z,39.07
2022-12-03T23:24:48.743Z,39.77
2022-12-03T23:27:33.613Z,40.13
2022-12-03T23:30:18.888Z,39.10
2022-12-03T23:33:05.656Z,38.57
2022-12-03T23:35:50.951Z,37.93
2022-12-03T23:38:36.162Z,40.70
2022-12-03T23:41:22.956Z,41.53
2022-12-03T23:44:08.126Z,38.93
2022-12-03T23:46:53.021Z,37.80
2022-12-03T23:49:38.362Z,38.87
2022-12-03T23:52:23.753Z,39.57
2022-12-03T23:55:09.680Z,40.87
2022-12-03T23:57:54.613Z,40.70
